createdAt,value
2019-04-10T00:00:56.333Z,7.46
2019-04-10T00:01:57.974Z,7.47
2019-04-10T00:02:56.278Z,7.51
2019-04-10T00:03:56.760Z,7.44
2019-04-10T00:04:56.239Z,7.26
2019-04-10T00:05:56.390Z,7.28
2019-04-10T00:07:10.436Z,7.36
2019-04-10T00:07:56.158Z,7.43
2019-04-10T00:08:56.739Z,7.33
2019-04-10T00:09:57.090Z,7.44
2019-04-10T00:10:56.359Z,7.41
2019-04-10T00:11:56.979Z,7.37
2019-04-10T00:12:56.278Z,7.31
2019-04-10T00:13:56.015Z,7.40
2019-04-10T00:14:56.746Z,7.25
2019-04-10T00:15:56.941Z,7.31
2019-04-10T00:16:56.413Z,7.28
2019-04-10T00:17:55.918Z,7.29
2019-04-10T00:18:56.171Z,7.23
2019-04-10T00:19:56.066Z,7.32
2019-04-10T00:20:56.697Z,7.31
2019-04-10T00:21:55.823Z,7.14
2019-04-10T00:22:55.798Z,7.13
2019-04-10T00:23:55.778Z,7.07
2019-04-10T00:24:56.615Z,7.05
2019-04-10T00:25:55.730Z,7.14
2019-04-10T00:26:56.432Z,7.07
2019-04-10T00:27:55.861Z,7.05
2019-04-10T00:28:56.036Z,6.97
2019-04-10T00:29:56.475Z,7.04
2019-04-10T00:30:55.700Z,6.95
2019-04-10T00:31:56.381Z,7.00
2019-04-10T00:32:56.440Z,6.95
2019-04-10T00:33:55.538Z,6.95
2019-04-10T00:34:56.112Z,7.00
2019-04-10T00:35:56.054Z,7.01
2019-04-10T00:36:55.533Z,6.97
2019-04-10T00:37:55.571Z,6.96
2019-04-10T00:38:55.916Z,7.04
2019-04-10T00:39:55.390Z,7.08
2019-04-10T00:40:55.513Z,6.97
2019-04-10T00:41:55.338Z,6.96
2019-04-10T00:42:57.056Z,6.89
2019-04-10T00:43:55.353Z,6.87
2019-04-10T00:44:56.287Z,6.90
2019-04-10T00:45:55.240Z,6.74
2019-04-10T00:46:55.218Z,6.75
2019-04-10T00:47:55.264Z,6.75
2019-04-10T00:48:55.169Z,6.80
2019-04-10T00:49:55.782Z,6.80
2019-04-10T00:50:55.120Z,6.62
2019-04-10T00:51:55.541Z,6.71
2019-04-10T00:52:55.070Z,6.71
2019-04-10T00:53:55.047Z,6.67
2019-04-10T00:54:55.377Z,6.67
2019-04-10T00:55:55.000Z,6.74
2019-04-10T00:56:54.979Z,6.65
2019-04-10T00:57:56.098Z,6.68
2019-04-10T00:58:55.424Z,6.62
2019-04-10T00:59:54.905Z,6.60
2019-04-10T01:00:55.103Z,6.60
2019-04-10T01:01:54.850Z,6.53
2019-04-10T01:02:54.830Z,6.54
2019-04-10T01:03:56.334Z,6.64
2019-04-10T01:04:55.072Z,6.54
2019-04-10T01:05:55.466Z,6.49
2019-04-10T01:06:54.732Z,6.54
2019-04-10T01:07:54.726Z,6.50
2019-04-10T01:08:55.162Z,6.43
2019-04-10T01:09:55.577Z,6.50
2019-04-10T01:10:54.778Z,6.54
2019-04-10T01:11:55.231Z,6.47
2019-04-10T01:12:54.590Z,6.47
2019-04-10T01:13:54.561Z,6.47
2019-04-10T01:14:54.536Z,6.46
2019-04-10T01:15:55.158Z,6.38
2019-04-10T01:16:54.487Z,6.46
2019-04-10T01:17:54.819Z,6.43
2019-04-10T01:18:55.174Z,6.50
2019-04-10T01:19:54.509Z,6.52
2019-04-10T01:20:54.405Z,6.41
2019-04-10T01:21:54.842Z,6.49
2019-04-10T01:22:55.235Z,6.34
2019-04-10T01:23:55.307Z,6.31
2019-04-10T01:24:54.464Z,6.29
2019-04-10T01:25:54.746Z,6.28
2019-04-10T01:26:54.256Z,6.34
2019-04-10T01:27:54.277Z,6.28
2019-04-10T01:28:57.496Z,6.31
2019-04-10T01:29:54.227Z,6.25
2019-04-10T01:30:54.949Z,6.16
2019-04-10T01:31:55.062Z,6.15
2019-04-10T01:32:54.423Z,6.17
2019-04-10T01:33:54.788Z,6.13
2019-04-10T01:34:54.046Z,6.22
2019-04-10T01:35:54.348Z,6.19
2019-04-10T01:36:54.626Z,6.25
2019-04-10T01:38:00.145Z,6.29
2019-04-10T01:38:53.949Z,6.22
2019-04-10T01:39:54.825Z,6.26
2019-04-10T01:40:53.911Z,6.28
2019-04-10T01:41:54.401Z,6.16
2019-04-10T01:43:09.293Z,6.09
2019-04-10T01:43:53.824Z,6.09
2019-04-10T01:44:53.799Z,6.06
2019-04-10T01:45:53.778Z,6.13
2019-04-10T01:46:54.885Z,6.12
2019-04-10T01:47:53.724Z,6.13
2019-04-10T01:48:53.705Z,6.09
2019-04-10T01:49:53.786Z,6.13
2019-04-10T01:50:53.655Z,6.12
2019-04-10T01:51:53.628Z,6.09
2019-04-10T01:52:53.603Z,6.07
2019-04-10T01:53:54.465Z,6.02
2019-04-10T01:54:53.552Z,5.92
2019-04-10T01:55:53.577Z,5.98
2019-04-10T01:56:53.506Z,5.98
2019-04-10T01:57:53.480Z,5.92
2019-04-10T01:58:53.754Z,5.94
2019-04-10T01:59:54.242Z,5.94
2019-04-10T02:00:54.220Z,5.98
2019-04-10T02:01:53.377Z,5.95
2019-04-10T02:02:53.982Z,6.05
2019-04-10T02:03:54.262Z,5.98
2019-04-10T02:04:54.206Z,5.91
2019-04-10T02:05:53.346Z,5.84
2019-04-10T02:06:53.786Z,5.88
2019-04-10T02:08:05.763Z,5.80
2019-04-10T02:08:54.230Z,5.77
2019-04-10T02:09:54.015Z,5.76
2019-04-10T02:10:53.309Z,5.74
2019-04-10T02:11:53.131Z,5.77
2019-04-10T02:12:53.109Z,5.84
2019-04-10T02:13:54.027Z,5.84
2019-04-10T02:14:53.071Z,5.81
2019-04-10T02:15:53.036Z,5.73
2019-04-10T02:16:53.006Z,5.74
2019-04-10T02:17:53.008Z,5.62
2019-04-10T02:18:54.054Z,5.64
2019-04-10T02:19:52.929Z,5.73
2019-04-10T02:20:53.628Z,5.74
2019-04-10T02:21:52.910Z,5.73
2019-04-10T02:22:53.871Z,5.76
2019-04-10T02:23:52.831Z,5.67
2019-04-10T02:24:53.511Z,5.40
2019-04-10T02:25:52.867Z,5.56
2019-04-10T02:26:53.969Z,5.54
2019-04-10T02:27:52.731Z,5.56
2019-04-10T02:28:53.439Z,5.55
2019-04-10T02:29:52.680Z,5.52
2019-04-10T02:30:54.187Z,5.51
2019-04-10T02:31:53.294Z,5.55
2019-04-10T02:32:54.206Z,5.55
2019-04-10T02:33:53.725Z,5.52
2019-04-10T02:34:53.183Z,5.54
2019-04-10T02:35:52.661Z,5.54
2019-04-10T02:36:52.923Z,5.59
2019-04-10T02:37:55.587Z,5.54
2019-04-10T02:39:04.616Z,5.55
2019-04-10T02:39:56.255Z,5.54
2019-04-10T02:40:53.014Z,5.40
2019-04-10T02:41:52.512Z,5.44
2019-04-10T02:42:52.379Z,5.34
2019-04-10T02:43:53.755Z,5.46
2019-04-10T02:44:52.364Z,5.44
2019-04-10T02:45:52.281Z,5.36
2019-04-10T02:46:54.905Z,5.37
2019-04-10T02:47:52.847Z,5.44
2019-04-10T02:48:54.119Z,5.41
2019-04-10T02:49:52.295Z,5.40
2019-04-10T02:50:53.359Z,5.36
2019-04-10T02:51:52.128Z,5.26
2019-04-10T02:52:52.441Z,5.31
2019-04-10T02:53:53.825Z,5.20
2019-04-10T02:54:53.705Z,5.28
2019-04-10T02:55:53.555Z,5.26
2019-04-10T02:56:52.804Z,5.28
2019-04-10T02:57:51.987Z,5.25
2019-04-10T02:58:51.952Z,5.26
2019-04-10T02:59:53.665Z,5.26
2019-04-10T03:00:54.294Z,5.26
2019-04-10T03:01:52.372Z,5.29
2019-04-10T03:02:52.065Z,5.29
2019-04-10T03:03:52.554Z,5.20
2019-04-10T03:04:53.289Z,5.25
2019-04-10T03:05:51.780Z,5.23
2019-04-10T03:06:53.396Z,5.19
2019-04-10T03:07:52.640Z,5.22
2019-04-10T03:09:08.632Z,5.23
2019-04-10T03:10:01.969Z,5.22
2019-04-10T03:10:59.011Z,5.16
2019-04-10T03:11:51.973Z,5.20
2019-04-10T03:12:52.589Z,5.22
2019-04-10T03:13:53.279Z,5.22
2019-04-10T03:14:52.294Z,5.16
2019-04-10T03:15:51.900Z,5.13
2019-04-10T03:16:51.553Z,5.19
2019-04-10T03:17:52.430Z,5.16
2019-04-10T03:18:51.446Z,5.00
2019-04-10T03:19:51.854Z,5.13
2019-04-10T03:20:51.498Z,5.13
2019-04-10T03:21:51.463Z,5.19
2019-04-10T03:22:51.479Z,5.13
2019-04-10T03:23:51.320Z,5.07
2019-04-10T03:24:51.294Z,5.12
2019-04-10T03:25:51.276Z,5.05
2019-04-10T03:26:52.159Z,5.02
2019-04-10T03:27:52.452Z,5.01
2019-04-10T03:28:51.480Z,5.12
2019-04-10T03:29:51.942Z,5.08
2019-04-10T03:30:51.144Z,5.07
2019-04-10T03:31:52.994Z,5.01
2019-04-10T03:32:55.826Z,5.07
2019-04-10T03:33:54.429Z,5.05
2019-04-10T03:34:51.346Z,5.02
2019-04-10T03:35:51.443Z,5.08
2019-04-10T03:36:51.757Z,5.01
2019-04-10T03:37:50.965Z,5.02
2019-04-10T03:38:59.581Z,5.02
2019-04-10T03:39:51.053Z,5.05
2019-04-10T03:40:51.423Z,5.07
2019-04-10T03:41:50.863Z,5.00
2019-04-10T03:42:50.962Z,4.95
2019-04-10T03:43:50.813Z,4.95
2019-04-10T03:44:51.396Z,4.95
2019-04-10T03:45:50.866Z,4.92
2019-04-10T03:46:51.195Z,4.86
2019-04-10T03:47:51.524Z,4.86
2019-04-10T03:48:51.517Z,4.94
2019-04-10T03:49:50.661Z,4.90
2019-04-10T03:50:50.646Z,4.84
2019-04-10T03:51:50.609Z,4.89
2019-04-10T03:52:51.613Z,4.86
2019-04-10T03:53:50.871Z,4.87
2019-04-10T03:54:50.536Z,4.86
2019-04-10T03:55:51.137Z,4.92
2019-04-10T03:56:50.488Z,4.90
2019-04-10T03:57:51.842Z,4.86
2019-04-10T03:58:51.425Z,4.83
2019-04-10T03:59:50.408Z,4.87
2019-04-10T04:00:50.647Z,4.79
2019-04-10T04:01:51.303Z,4.87
2019-04-10T04:02:50.329Z,4.84
2019-04-10T04:03:51.170Z,4.86
2019-04-10T04:04:50.280Z,4.84
2019-04-10T04:05:51.055Z,4.87
2019-04-10T04:06:50.314Z,4.86
2019-04-10T04:07:50.692Z,4.86
2019-04-10T04:09:01.735Z,4.84
2019-04-10T04:09:50.152Z,4.76
2019-04-10T04:10:51.226Z,4.70
2019-04-10T04:11:50.315Z,4.76
2019-04-10T04:12:50.972Z,4.79
2019-04-10T04:13:50.113Z,4.74
2019-04-10T04:14:50.023Z,4.75
2019-04-10T04:15:50.566Z,4.68
2019-04-10T04:16:50.006Z,4.76
2019-04-10T04:17:50.638Z,4.74
2019-04-10T04:18:49.949Z,4.70
2019-04-10T04:19:50.455Z,4.71
2019-04-10T04:20:50.907Z,4.68
2019-04-10T04:21:50.251Z,4.60
2019-04-10T04:22:49.821Z,4.58
2019-04-10T04:23:49.794Z,4.58
2019-04-10T04:24:50.302Z,4.63
2019-04-10T04:25:50.413Z,4.64
2019-04-10T04:26:50.719Z,4.56
2019-04-10T04:27:49.723Z,4.67
2019-04-10T04:28:49.681Z,4.64
2019-04-10T04:29:49.896Z,4.56
2019-04-10T04:30:51.925Z,4.61
2019-04-10T04:31:50.590Z,4.52
2019-04-10T04:32:50.504Z,4.50
2019-04-10T04:33:49.539Z,4.48
2019-04-10T04:34:49.765Z,4.50
2019-04-10T04:35:49.494Z,4.42
2019-04-10T04:36:49.462Z,4.53
2019-04-10T04:37:50.496Z,4.45
2019-04-10T04:38:49.410Z,4.42
2019-04-10T04:39:49.388Z,4.56
2019-04-10T04:40:51.283Z,4.38
2019-04-10T04:41:50.101Z,4.49
2019-04-10T04:42:49.424Z,4.48
2019-04-10T04:43:50.171Z,4.39
2019-04-10T04:44:49.267Z,4.45
2019-04-10T04:45:49.235Z,4.46
2019-04-10T04:46:49.238Z,4.32
2019-04-10T04:47:50.275Z,4.46
2019-04-10T04:48:50.091Z,4.57
2019-04-10T04:49:50.036Z,4.40
2019-04-10T04:50:49.992Z,4.40
2019-04-10T04:51:49.078Z,4.34
2019-04-10T04:52:49.346Z,4.43
2019-04-10T04:53:49.025Z,4.38
2019-04-10T04:54:49.836Z,4.39
2019-04-10T04:55:48.973Z,4.38
2019-04-10T04:56:48.956Z,4.36
2019-04-10T04:57:49.161Z,4.32
2019-04-10T04:58:49.693Z,4.30
2019-04-10T04:59:48.872Z,4.30
2019-04-10T05:00:48.853Z,4.30
2019-04-10T05:01:48.915Z,4.38
2019-04-10T05:02:48.792Z,4.34
2019-04-10T05:03:48.769Z,4.38
2019-04-10T05:04:49.379Z,4.28
2019-04-10T05:05:49.663Z,4.34
2019-04-10T05:06:48.700Z,4.34
2019-04-10T05:07:58.485Z,4.34
2019-04-10T05:08:48.670Z,4.49
2019-04-10T05:09:48.615Z,4.53
2019-04-10T05:10:49.652Z,4.39
2019-04-10T05:11:48.977Z,4.43
2019-04-10T05:12:49.471Z,4.48
2019-04-10T05:13:48.972Z,4.39
2019-04-10T05:14:48.484Z,4.48
2019-04-10T05:15:49.241Z,4.46
2019-04-10T05:16:48.431Z,4.42
2019-04-10T05:17:49.338Z,4.24
2019-04-10T05:18:48.380Z,4.27
2019-04-10T05:19:48.355Z,4.24
2019-04-10T05:20:50.500Z,4.22
2019-04-10T05:21:48.303Z,4.27
2019-04-10T05:22:49.203Z,4.21
2019-04-10T05:23:49.246Z,4.28
2019-04-10T05:24:48.855Z,4.36
2019-04-10T05:25:48.213Z,4.39
2019-04-10T05:26:49.123Z,4.38
2019-04-10T05:27:49.025Z,4.32
2019-04-10T05:28:48.609Z,4.42
2019-04-10T05:29:48.102Z,4.43
2019-04-10T05:30:48.070Z,4.45
2019-04-10T05:31:48.961Z,4.38
2019-04-10T05:32:48.018Z,4.39
2019-04-10T05:33:49.072Z,4.43
2019-04-10T05:34:47.969Z,4.43
2019-04-10T05:35:48.817Z,4.46
2019-04-10T05:36:49.049Z,4.56
2019-04-10T05:37:47.889Z,4.45
2019-04-10T05:38:48.221Z,4.48
2019-04-10T05:39:50.744Z,4.39
2019-04-10T05:40:48.527Z,4.48
2019-04-10T05:41:48.465Z,4.49
2019-04-10T05:42:47.761Z,4.52
2019-04-10T05:43:48.824Z,4.60
2019-04-10T05:44:47.891Z,4.63
2019-04-10T05:45:48.612Z,4.78
2019-04-10T05:46:47.658Z,4.70
2019-04-10T05:47:47.631Z,4.75
2019-04-10T05:48:49.037Z,4.76
2019-04-10T05:49:47.586Z,4.75
2019-04-10T05:50:54.038Z,4.68
2019-04-10T05:51:47.929Z,4.75
2019-04-10T05:52:47.508Z,4.79
2019-04-10T05:53:49.892Z,4.78
2019-04-10T05:54:47.454Z,4.78
2019-04-10T05:55:47.429Z,4.87
2019-04-10T05:56:47.413Z,4.95
2019-04-10T05:57:47.376Z,5.10
2019-04-10T05:58:47.354Z,4.95
2019-04-10T05:59:48.031Z,4.83
2019-04-10T06:00:47.300Z,5.07
2019-04-10T06:01:48.484Z,5.41
2019-04-10T06:02:48.173Z,5.73
2019-04-10T06:03:47.390Z,5.81
2019-04-10T06:04:47.216Z,5.83
2019-04-10T06:05:47.174Z,5.94
2019-04-10T06:06:47.146Z,5.98
2019-04-10T06:07:47.553Z,6.13
2019-04-10T06:08:47.144Z,6.31
2019-04-10T06:09:56.803Z,6.44
2019-04-10T06:10:47.830Z,6.54
2019-04-10T06:11:47.429Z,6.67
2019-04-10T06:12:47.002Z,6.86
2019-04-10T06:13:46.983Z,6.89
2019-04-10T06:14:46.953Z,7.18
2019-04-10T06:15:47.493Z,7.59
2019-04-10T06:16:46.913Z,7.75
2019-04-10T06:17:47.023Z,7.87
2019-04-10T06:18:47.187Z,8.23
2019-04-10T06:19:46.903Z,8.42
2019-04-10T06:20:47.328Z,8.44
2019-04-10T06:21:46.792Z,8.34
2019-04-10T06:22:47.339Z,8.31
2019-04-10T06:23:47.660Z,8.41
2019-04-10T06:24:46.812Z,8.05
2019-04-10T06:25:47.815Z,7.91
2019-04-10T06:26:47.818Z,7.78
2019-04-10T06:27:46.654Z,7.90
2019-04-10T06:28:46.629Z,7.78
2019-04-10T06:29:47.641Z,7.58
2019-04-10T06:30:46.592Z,7.74
2019-04-10T06:31:47.195Z,7.69
2019-04-10T06:32:47.357Z,7.90
2019-04-10T06:33:46.522Z,8.01
2019-04-10T06:34:46.499Z,8.02
2019-04-10T06:35:46.863Z,7.85
2019-04-10T06:36:46.459Z,7.93
2019-04-10T06:37:46.526Z,7.74
2019-04-10T06:38:47.390Z,7.48
2019-04-10T06:39:46.556Z,7.26
2019-04-10T06:40:46.371Z,7.33
2019-04-10T06:41:46.768Z,7.33
2019-04-10T06:42:51.641Z,7.14
2019-04-10T06:43:47.461Z,7.25
2019-04-10T06:44:46.296Z,7.23
2019-04-10T06:45:46.258Z,6.90
2019-04-10T06:46:46.532Z,6.75
2019-04-10T06:47:46.631Z,6.70
2019-04-10T06:48:46.198Z,6.65
2019-04-10T06:49:46.173Z,6.72
2019-04-10T06:50:46.154Z,6.87
2019-04-10T06:51:46.174Z,6.97
2019-04-10T06:52:47.079Z,6.92
2019-04-10T06:53:54.039Z,6.97
2019-04-10T06:54:47.013Z,6.62
2019-04-10T06:55:46.866Z,6.77
2019-04-10T06:56:48.349Z,6.90
2019-04-10T06:57:51.932Z,6.82
2019-04-10T06:58:45.969Z,6.72
2019-04-10T06:59:46.175Z,6.78
2019-04-10T07:00:50.618Z,6.72
2019-04-10T07:01:51.389Z,6.82
2019-04-10T07:02:46.298Z,6.82
2019-04-10T07:03:57.132Z,6.68
2019-04-10T07:04:53.104Z,6.82
2019-04-10T07:06:01.363Z,7.03
2019-04-10T07:06:55.715Z,7.03
2019-04-10T07:07:51.935Z,7.13
2019-04-10T07:08:49.851Z,7.18
2019-04-10T07:09:45.705Z,7.11
2019-04-10T07:10:54.059Z,7.21
2019-04-10T07:11:47.944Z,7.18
2019-04-10T07:12:45.771Z,7.28
2019-04-10T07:13:45.615Z,7.36
2019-04-10T07:14:49.249Z,7.41
2019-04-10T07:15:46.881Z,7.47
2019-04-10T07:16:45.679Z,7.66
2019-04-10T07:17:45.520Z,7.66
2019-04-10T07:18:48.928Z,7.77
2019-04-10T07:19:46.019Z,7.64
2019-04-10T07:20:46.364Z,7.91
2019-04-10T07:21:45.429Z,8.18
2019-04-10T07:22:47.223Z,8.42
2019-04-10T07:23:45.388Z,8.97
2019-04-10T07:24:46.143Z,8.97
2019-04-10T07:25:46.906Z,8.99
2019-04-10T07:26:47.862Z,9.11
2019-04-10T07:27:45.921Z,8.82
2019-04-10T07:28:47.206Z,8.87
2019-04-10T07:29:45.240Z,9.03
2019-04-10T07:30:45.657Z,8.97
2019-04-10T07:31:45.196Z,8.90
2019-04-10T07:32:47.898Z,9.19
2019-04-10T07:33:50.091Z,9.27
2019-04-10T07:34:45.129Z,9.27
2019-04-10T07:35:45.106Z,9.58
2019-04-10T07:36:45.557Z,9.62
2019-04-10T07:37:45.066Z,9.74
2019-04-10T07:38:45.055Z,9.69
2019-04-10T07:39:45.129Z,9.48
2019-04-10T07:40:45.071Z,9.64
2019-04-10T07:41:45.379Z,9.94
2019-04-10T07:42:44.955Z,10.00
2019-04-10T07:43:44.945Z,10.05
2019-04-10T07:45:44.895Z,10.68
2019-04-10T07:46:48.743Z,10.82
2019-04-10T07:47:44.847Z,10.68
2019-04-10T07:48:45.560Z,10.86
2019-04-10T07:49:44.811Z,10.84
2019-04-10T07:50:46.947Z,10.65
2019-04-10T07:51:47.273Z,10.75
2019-04-10T07:52:45.795Z,10.83
2019-04-10T07:53:44.723Z,11.40
2019-04-10T07:54:45.144Z,11.67
2019-04-10T07:55:56.431Z,11.81
2019-04-10T07:56:44.662Z,11.85
2019-04-10T07:57:47.237Z,11.76
2019-04-10T07:58:44.623Z,11.56
2019-04-10T07:59:45.294Z,11.48
2019-04-10T08:00:44.878Z,11.30
2019-04-10T08:01:44.565Z,10.77
2019-04-10T08:02:44.835Z,10.64
2019-04-10T08:03:46.418Z,10.72
2019-04-10T08:04:45.329Z,10.97
2019-04-10T08:05:44.494Z,11.20
2019-04-10T08:06:44.736Z,11.22
2019-04-10T08:07:45.205Z,11.07
2019-04-10T08:08:44.786Z,11.34
2019-04-10T08:09:44.470Z,11.44
2019-04-10T08:10:45.106Z,11.40
2019-04-10T08:11:44.832Z,11.45
2019-04-10T08:12:50.047Z,11.56
2019-04-10T08:13:44.870Z,11.74
2019-04-10T08:14:44.337Z,11.81
2019-04-10T08:15:45.375Z,11.88
2019-04-10T08:16:44.276Z,11.95
2019-04-10T08:17:44.544Z,11.97
2019-04-10T08:18:44.247Z,11.93
2019-04-10T08:19:45.272Z,12.11
2019-04-10T08:20:44.203Z,12.14
2019-04-10T08:21:44.395Z,12.26
2019-04-10T08:22:44.871Z,11.74
2019-04-10T08:23:44.606Z,11.60
2019-04-10T08:24:46.174Z,11.71
2019-04-10T08:25:44.329Z,11.83
2019-04-10T08:26:45.125Z,12.02
2019-04-10T08:27:44.077Z,12.07
2019-04-10T08:29:39.357Z,11.43
2019-04-10T08:31:48.353Z,11.13
2019-04-10T08:40:48.909Z,12.03
2019-04-10T08:41:50.032Z,12.18
2019-04-10T08:42:49.232Z,12.12
2019-04-10T08:43:48.863Z,12.29
2019-04-10T08:44:48.841Z,12.53
2019-04-10T08:45:52.103Z,12.55
2019-04-10T08:46:48.803Z,12.69
2019-04-10T08:47:48.783Z,12.63
2019-04-10T08:48:49.812Z,12.62
2019-04-10T08:49:49.466Z,12.54
2019-04-10T08:50:48.748Z,12.83
2019-04-10T08:51:48.714Z,13.02
2019-04-10T08:52:48.754Z,12.50
2019-04-10T08:53:48.906Z,12.26
2019-04-10T08:54:49.098Z,12.17
2019-04-10T08:55:48.652Z,12.15
2019-04-10T08:56:49.228Z,12.61
2019-04-10T08:57:48.609Z,12.83
2019-04-10T08:58:49.681Z,13.11
2019-04-10T08:59:48.575Z,13.28
2019-04-10T09:00:50.965Z,13.37
2019-04-10T09:01:49.364Z,13.64
2019-04-10T09:02:48.685Z,13.85
2019-04-10T09:03:48.923Z,14.01
2019-04-10T09:04:49.032Z,13.89
2019-04-10T09:05:49.069Z,14.04
2019-04-10T09:06:49.489Z,14.34
2019-04-10T09:07:48.615Z,14.28
2019-04-10T09:08:48.918Z,14.38
2019-04-10T09:09:48.411Z,14.37
2019-04-10T09:10:50.436Z,14.49
2019-04-10T09:12:54.515Z,14.15
2019-04-10T09:13:52.792Z,14.33
2019-04-10T09:14:52.390Z,14.49
2019-04-10T09:15:52.401Z,14.71
2019-04-10T09:16:53.094Z,15.00
2019-04-10T09:17:52.534Z,14.73
2019-04-10T09:18:52.358Z,14.81
2019-04-10T09:19:52.308Z,14.41
2019-04-10T09:20:53.105Z,14.44
2019-04-10T09:21:52.276Z,13.70
2019-04-10T09:23:13.369Z,13.67
2019-04-10T09:23:54.450Z,13.89
2019-04-10T09:24:52.893Z,13.89
2019-04-10T09:25:52.268Z,13.75
2019-04-10T09:26:52.851Z,13.82
2019-04-10T09:27:52.191Z,13.71
2019-04-10T09:28:52.946Z,13.87
2019-04-10T09:29:52.234Z,14.11
2019-04-10T09:30:53.186Z,14.59
2019-04-10T09:31:52.148Z,14.51
2019-04-10T09:32:52.777Z,14.70
2019-04-10T09:33:52.109Z,15.15
2019-04-10T09:34:52.187Z,14.70
2019-04-10T09:35:52.988Z,14.67
2019-04-10T09:36:52.066Z,14.53
2019-04-10T09:37:52.451Z,14.71
2019-04-10T09:38:52.818Z,14.99
2019-04-10T09:39:53.437Z,15.33
2019-04-10T09:40:53.219Z,15.43
2019-04-10T09:41:52.353Z,15.83
2019-04-10T09:42:52.180Z,16.31
2019-04-10T09:43:51.970Z,16.65
2019-04-10T09:44:52.806Z,16.82
2019-04-10T09:45:51.942Z,17.01
2019-04-10T09:46:51.939Z,17.34
2019-04-10T09:47:52.303Z,17.07
2019-04-10T09:48:52.054Z,17.17
2019-04-10T09:49:51.916Z,16.76
2019-04-10T09:50:52.626Z,15.99
2019-04-10T09:51:51.870Z,15.78
2019-04-10T09:52:52.423Z,15.98
2019-04-10T09:53:51.846Z,16.26
2019-04-10T09:54:51.835Z,16.74
2019-04-10T09:55:52.414Z,16.44
2019-04-10T09:56:52.810Z,16.44
2019-04-10T09:57:51.909Z,15.65
2019-04-10T09:58:51.961Z,16.08
2019-04-10T09:59:52.658Z,16.50
2019-04-10T10:00:52.255Z,16.87
2019-04-10T10:01:52.740Z,17.32
2019-04-10T10:02:52.884Z,17.42
2019-04-10T10:03:52.779Z,16.79
2019-04-10T10:04:51.791Z,17.09
2019-04-10T10:05:51.723Z,16.84
2019-04-10T10:06:51.712Z,16.44
2019-04-10T10:07:52.966Z,16.92
2019-04-10T10:08:52.328Z,16.98
2019-04-10T10:09:51.683Z,16.17
2019-04-10T10:10:51.674Z,16.13
2019-04-10T10:11:51.667Z,16.34
2019-04-10T10:12:52.638Z,16.43
2019-04-10T10:13:52.304Z,16.22
2019-04-10T10:14:51.954Z,16.43
2019-04-10T10:15:51.638Z,16.34
2019-04-10T10:16:52.585Z,16.77
2019-04-10T10:17:51.618Z,17.07
2019-04-10T10:18:51.966Z,16.82
2019-04-10T10:19:53.566Z,16.55
2019-04-10T10:20:52.281Z,16.59
2019-04-10T10:21:52.545Z,17.02
2019-04-10T10:22:51.813Z,16.79
2019-04-10T10:23:52.033Z,16.77
2019-04-10T10:24:51.555Z,17.14
2019-04-10T10:25:51.537Z,17.20
2019-04-10T10:26:51.544Z,17.20
2019-04-10T10:27:51.521Z,16.92
2019-04-10T10:28:52.503Z,16.43
2019-04-10T10:29:53.452Z,16.77
2019-04-10T10:30:51.599Z,17.27
2019-04-10T10:31:52.584Z,17.34
2019-04-10T10:32:51.476Z,17.17
2019-04-10T10:33:52.210Z,17.47
2019-04-10T10:34:52.300Z,16.80
2019-04-10T10:35:51.598Z,16.46
2019-04-10T10:36:53.173Z,16.49
2019-04-10T10:37:51.546Z,16.77
2019-04-10T10:39:03.610Z,17.07
2019-04-10T10:39:51.417Z,16.95
2019-04-10T10:40:51.404Z,16.62
2019-04-10T10:41:51.557Z,16.91
2019-04-10T10:42:51.928Z,17.28
2019-04-10T10:43:51.381Z,17.28
2019-04-10T10:44:51.371Z,16.26
2019-04-10T10:45:51.368Z,16.40
2019-04-10T10:46:51.621Z,16.41
2019-04-10T10:47:52.589Z,16.76
2019-04-10T10:48:51.683Z,17.28
2019-04-10T10:49:51.331Z,16.50
2019-04-10T10:50:51.316Z,16.21
2019-04-10T10:51:51.310Z,16.68
2019-04-10T10:52:52.138Z,16.29
2019-04-10T10:53:52.285Z,15.88
2019-04-10T10:54:51.468Z,16.18
2019-04-10T10:55:51.287Z,16.73
2019-04-10T10:56:51.261Z,16.37
2019-04-10T10:57:51.286Z,15.41
2019-04-10T10:58:53.026Z,15.47
2019-04-10T10:59:51.486Z,15.41
2019-04-10T11:00:51.739Z,15.11
2019-04-10T11:01:51.940Z,14.99
2019-04-10T11:02:51.896Z,15.19
2019-04-10T11:03:51.194Z,15.87
2019-04-10T11:04:51.706Z,16.29
2019-04-10T11:05:51.171Z,15.88
2019-04-10T11:06:58.859Z,15.98
2019-04-10T11:07:51.481Z,15.94
2019-04-10T11:08:51.491Z,15.81
2019-04-10T11:09:52.690Z,16.51
2019-04-10T11:10:55.501Z,16.82
2019-04-10T11:11:51.113Z,16.82
2019-04-10T11:12:52.170Z,17.05
2019-04-10T11:13:51.093Z,16.77
2019-04-10T11:14:52.280Z,16.94
2019-04-10T11:15:52.396Z,16.84
2019-04-10T11:16:51.665Z,16.84
2019-04-10T11:17:52.009Z,16.97
2019-04-10T11:18:51.043Z,16.79
2019-04-10T11:19:51.396Z,16.74
2019-04-10T11:20:52.227Z,16.89
2019-04-10T11:21:51.102Z,16.24
2019-04-10T11:22:51.015Z,16.32
2019-04-10T11:23:51.004Z,16.69
2019-04-10T11:24:51.269Z,16.61
2019-04-10T11:25:52.742Z,16.50
2019-04-10T11:26:51.909Z,16.28
2019-04-10T11:27:51.581Z,15.69
2019-04-10T11:28:50.960Z,15.39
2019-04-10T11:29:51.103Z,15.92
2019-04-10T11:30:50.929Z,15.88
2019-04-10T11:31:51.261Z,16.31
2019-04-10T11:32:50.915Z,16.54
2019-04-10T11:33:53.725Z,16.57
2019-04-10T11:34:50.891Z,16.83
2019-04-10T11:35:51.527Z,16.72
2019-04-10T11:37:11.258Z,15.92
2019-04-10T11:37:53.312Z,15.25
2019-04-10T11:38:51.862Z,15.25
2019-04-10T11:39:51.589Z,15.83
2019-04-10T11:40:52.160Z,16.13
2019-04-10T11:41:50.813Z,15.62
2019-04-10T11:42:51.516Z,15.00
2019-04-10T11:43:52.788Z,14.40
2019-04-10T11:44:53.668Z,15.04
2019-04-10T11:46:52.683Z,16.29
2019-04-10T11:47:51.388Z,16.31
2019-04-10T11:48:51.793Z,16.50
2019-04-10T11:49:50.737Z,15.99
2019-04-10T11:50:51.132Z,16.00
2019-04-10T11:51:52.972Z,16.06
2019-04-10T11:53:54.415Z,14.71
2019-04-10T11:54:52.652Z,14.59
2019-04-10T11:55:53.000Z,14.73
2019-04-10T11:56:52.861Z,14.90
2019-04-10T11:57:51.536Z,14.70
2019-04-10T11:58:55.851Z,15.19
2019-04-10T11:59:50.600Z,14.99
2019-04-10T12:00:52.528Z,14.90
2019-04-10T12:01:52.976Z,15.27
2019-04-10T12:02:52.860Z,15.43
2019-04-10T12:03:52.201Z,15.55
2019-04-10T12:05:51.835Z,14.78
2019-04-10T12:06:54.995Z,15.25
2019-04-10T12:08:18.158Z,15.14
2019-04-10T12:09:13.757Z,14.58
2019-04-10T12:11:08.876Z,14.01
2019-04-10T12:11:50.414Z,13.55
2019-04-10T12:12:51.467Z,13.11
2019-04-10T12:13:50.518Z,13.24
2019-04-10T12:14:54.123Z,13.43
2019-04-10T12:15:50.516Z,13.61
2019-04-10T12:16:51.507Z,13.37
2019-04-10T12:17:50.330Z,13.50
2019-04-10T12:18:50.950Z,13.73
2019-04-10T12:19:50.293Z,13.86
2019-04-10T12:20:51.454Z,13.67
2019-04-10T12:21:50.409Z,13.73
2019-04-10T12:22:50.377Z,13.61
2019-04-10T12:23:51.434Z,13.78
2019-04-10T12:24:51.310Z,13.87
2019-04-10T12:25:52.010Z,14.01
2019-04-10T12:26:50.172Z,14.25
2019-04-10T12:27:50.170Z,14.30
2019-04-10T12:28:50.141Z,13.85
2019-04-10T12:29:50.996Z,13.76
2019-04-10T12:30:51.248Z,13.40
2019-04-10T12:31:50.336Z,12.87
2019-04-10T12:32:50.060Z,12.90
2019-04-10T12:33:50.730Z,13.09
2019-04-10T12:34:50.815Z,13.42
2019-04-10T12:35:50.036Z,13.55
2019-04-10T12:36:51.803Z,13.26
2019-04-10T12:37:59.426Z,13.28
2019-04-10T12:38:49.974Z,13.37
2019-04-10T12:39:49.938Z,13.45
2019-04-10T12:40:50.854Z,13.36
2019-04-10T12:41:52.015Z,13.64
2019-04-10T12:46:51.606Z,13.40
2019-04-10T12:47:52.436Z,13.03
2019-04-10T12:48:52.503Z,13.28
2019-04-10T12:49:51.926Z,13.42
2019-04-10T12:50:51.528Z,13.67
2019-04-10T12:51:52.118Z,13.54
2019-04-10T12:52:51.501Z,13.75
2019-04-10T12:53:51.979Z,13.64
2019-04-10T12:54:51.457Z,13.62
2019-04-10T12:55:51.523Z,13.57
2019-04-10T12:56:52.568Z,13.50
2019-04-10T12:57:51.399Z,13.50
2019-04-10T12:58:51.378Z,13.49
2019-04-10T12:59:51.947Z,13.40
2019-04-10T13:00:52.139Z,13.26
2019-04-10T13:01:51.321Z,13.11
2019-04-10T13:02:52.234Z,13.16
2019-04-10T13:03:51.575Z,13.33
2019-04-10T13:04:52.432Z,13.28
2019-04-10T13:05:51.509Z,13.17
2019-04-10T13:06:52.673Z,13.05
2019-04-10T13:07:51.903Z,12.87
2019-04-10T13:08:57.858Z,13.02
2019-04-10T13:09:51.197Z,12.90
2019-04-10T13:10:51.912Z,13.05
2019-04-10T13:11:51.152Z,13.28
2019-04-10T13:12:51.441Z,13.16
2019-04-10T13:13:51.298Z,13.21
2019-04-10T13:14:51.079Z,13.31
2019-04-10T13:15:51.881Z,13.27
2019-04-10T13:16:52.106Z,13.26
2019-04-10T13:17:51.115Z,13.26
2019-04-10T13:18:51.004Z,13.24
2019-04-10T13:19:51.432Z,13.42
2019-04-10T13:20:50.967Z,13.20
2019-04-10T13:21:51.647Z,13.21
2019-04-10T13:22:50.932Z,13.39
2019-04-10T13:23:51.019Z,13.45
2019-04-10T13:24:52.041Z,13.33
2019-04-10T13:25:59.172Z,13.27
2019-04-10T13:26:50.845Z,13.30
2019-04-10T13:27:50.839Z,13.06